createdAt,value
2022-10-07T00:00:45.403Z,11.22000027
2022-10-07T00:01:41.111Z,11.21000004
2022-10-07T00:02:42.480Z,11.17000008
2022-10-07T00:03:39.832Z,11.14000034
2022-10-07T00:04:37.331Z,11.13000011
2022-10-07T00:05:37.662Z,11.11999989
2022-10-07T00:07:35.339Z,11.09000015
2022-10-07T00:08:27.283Z,11.07999992
2022-10-07T00:09:29.348Z,11.05000019
2022-10-07T00:10:20.948Z,11.02999973
2022-10-07T00:11:22.395Z,11.07999992
2022-10-07T00:12:16.909Z,11.06999969
2022-10-07T00:13:12.587Z,11.06000042
2022-10-07T00:14:49.081Z,11.06000042
2022-10-07T00:15:36.609Z,11.02999973
2022-10-07T00:16:35.779Z,11.10000038
2022-10-07T00:17:36.818Z,11.09000015
2022-10-07T00:18:34.480Z,11.06999969
2022-10-07T00:19:36.899Z,11.05000019
2022-10-07T00:20:41.363Z,11.02999973
2022-10-07T00:22:40.486Z,11.02000046
2022-10-07T00:23:39.878Z,11.02000046
2022-10-07T00:24:42.422Z,10.98999977
2022-10-07T00:25:38.426Z,10.97000027
2022-10-07T00:27:35.550Z,10.98999977
2022-10-07T00:28:38.822Z,10.97999954
2022-10-07T00:29:35.671Z,10.96000004
2022-10-07T00:30:39.883Z,10.93999958
2022-10-07T00:31:32.921Z,10.96000004
2022-10-07T00:32:38.214Z,10.94999981
2022-10-07T00:33:37.326Z,10.94999981
2022-10-07T00:34:46.354Z,10.97999954
2022-10-07T00:35:42.575Z,11
2022-10-07T00:37:42.386Z,11.02000046
2022-10-07T00:38:42.863Z,10.98999977
2022-10-07T00:39:38.871Z,10.96000004
2022-10-07T00:40:39.065Z,10.96000004
2022-10-07T00:41:35.403Z,10.97999954
2022-10-07T00:42:38.414Z,10.94999981
2022-10-07T00:43:37.587Z,10.97000027
2022-10-07T00:44:41.741Z,10.96000004
2022-10-07T00:45:35.010Z,10.97000027
2022-10-07T00:47:33.066Z,11.01000023
2022-10-07T00:48:36.558Z,10.98999977
2022-10-07T00:49:29.232Z,10.96000004
2022-10-07T00:50:31.759Z,10.93999958
2022-10-07T00:52:24.531Z,10.98999977
2022-10-07T00:53:25.622Z,10.96000004
2022-10-07T00:54:21.802Z,10.94999981
2022-10-07T00:55:24.867Z,10.92000008
2022-10-07T00:57:23.019Z,10.96000004
2022-10-07T00:58:26.784Z,10.96000004
2022-10-07T01:00:38.423Z,11.02000046
2022-10-07T01:01:02.633Z,11.11999989
2022-10-07T01:03:06.295Z,11.27999973
2022-10-07T01:04:09.046Z,11.26000023
2022-10-07T01:05:09.111Z,11.25
2022-10-07T01:06:09.746Z,11.25
2022-10-07T01:07:12.068Z,11.22999954
2022-10-07T01:08:14.061Z,11.19999981
2022-10-07T01:09:20.749Z,11.14999962
2022-10-07T01:10:21.407Z,11.10999966
2022-10-07T01:11:20.365Z,11.14999962
2022-10-07T01:12:27.790Z,11.10000038
2022-10-07T01:13:30.393Z,11.05000019
2022-10-07T01:14:33.045Z,11.02999973
2022-10-07T01:15:33.100Z,11.02000046
2022-10-07T01:16:35.329Z,11.02999973
2022-10-07T01:17:33.062Z,11.02000046
2022-10-07T01:18:35.630Z,11.02000046
2022-10-07T01:19:36.475Z,11
2022-10-07T01:20:34.366Z,11
2022-10-07T01:22:33.407Z,10.97000027
2022-10-07T01:23:37.089Z,10.97000027
2022-10-07T01:24:32.319Z,10.93999958
2022-10-07T01:25:37.034Z,10.93000031
2022-10-07T01:26:33.138Z,10.94999981
2022-10-07T01:27:34.924Z,10.93000031
2022-10-07T01:28:35.858Z,10.89999962
2022-10-07T01:29:38.528Z,10.88000011
2022-10-07T01:30:36.536Z,10.84000015
2022-10-07T01:32:38.091Z,10.80000019
2022-10-07T01:33:41.106Z,10.77999973
2022-10-07T01:34:38.184Z,10.77999973
2022-10-07T01:35:43.799Z,10.78999996
2022-10-07T01:37:27.596Z,10.84000015
2022-10-07T01:38:12.917Z,10.86999989
2022-10-07T01:39:10.041Z,10.90999985
2022-10-07T01:40:08.471Z,10.89999962
2022-10-07T01:41:07.265Z,10.89000034
2022-10-07T01:42:06.272Z,10.89999962
2022-10-07T01:43:07.205Z,10.86999989
2022-10-07T01:43:59.356Z,10.84000015
2022-10-07T01:44:59.501Z,10.81999969
2022-10-07T01:45:56.731Z,10.81000042
2022-10-07T01:46:55.946Z,10.81000042
2022-10-07T01:47:51.544Z,10.77999973
2022-10-07T01:49:05.020Z,10.77000046
2022-10-07T01:50:00.468Z,10.72999954
2022-10-07T01:51:00.894Z,10.77000046
2022-10-07T01:51:55.536Z,10.78999996
2022-10-07T01:52:55.454Z,10.77000046
2022-10-07T01:53:53.876Z,10.73999977
2022-10-07T01:55:00.506Z,10.73999977
2022-10-07T01:55:55.325Z,10.73999977
2022-10-07T01:57:54.049Z,10.72000027
2022-10-07T01:58:47.739Z,10.72000027
2022-10-07T01:59:55.199Z,10.69999981
2022-10-07T02:01:03.488Z,10.72999954
2022-10-07T02:02:02.094Z,10.71000004
2022-10-07T02:03:00.268Z,10.68000031
2022-10-07T02:04:02.818Z,10.64999962
2022-10-07T02:04:57.026Z,10.64999962
2022-10-07T02:05:56.342Z,10.64999962
2022-10-07T02:07:52.158Z,10.65999985
2022-10-07T02:08:47.954Z,10.63000011
2022-10-07T02:09:50.364Z,10.60999966
2022-10-07T02:10:44.126Z,10.61999989
2022-10-07T02:11:44.725Z,10.64000034
2022-10-07T02:12:39.917Z,10.61999989
2022-10-07T02:13:39.503Z,10.60999966
2022-10-07T02:14:33.874Z,10.60999966
2022-10-07T02:15:36.813Z,10.60999966
2022-10-07T02:16:41.255Z,10.63000011
2022-10-07T02:17:49.320Z,10.59000015
2022-10-07T02:18:47.802Z,10.56999969
2022-10-07T02:20:21.342Z,10.73999977
2022-10-07T02:22:05.239Z,11.09000015
2022-10-07T02:22:45.104Z,11.22000027
2022-10-07T02:23:49.723Z,11.26000023
2022-10-07T02:24:44.788Z,11.18999958
2022-10-07T02:25:41.584Z,11.13000011
2022-10-07T02:26:45.808Z,11.06999969
2022-10-07T02:27:43.250Z,10.97999954
2022-10-07T02:28:44.638Z,10.90999985
2022-10-07T02:29:39.887Z,10.84000015
2022-10-07T02:30:41.638Z,10.84000015
2022-10-07T02:31:36.109Z,10.85000038
2022-10-07T02:32:35.617Z,10.82999992
2022-10-07T02:33:30.804Z,10.81000042
2022-10-07T02:34:33.080Z,10.80000019
2022-10-07T02:35:28.292Z,10.77999973
2022-10-07T02:36:29.016Z,10.82999992
2022-10-07T02:37:24.275Z,10.81999969
2022-10-07T02:38:24.908Z,10.81000042
2022-10-07T02:39:20.659Z,10.80000019
2022-10-07T02:40:22.845Z,10.76000023
2022-10-07T02:41:31.648Z,10.75
2022-10-07T02:42:28.334Z,10.72000027
2022-10-07T02:43:29.962Z,10.68999958
2022-10-07T02:44:24.427Z,10.68000031
2022-10-07T02:45:26.667Z,10.67000008
2022-10-07T02:47:20.307Z,10.68999958
2022-10-07T02:48:22.645Z,10.72999954
2022-10-07T02:49:15.311Z,10.72000027
2022-10-07T02:50:18.510Z,10.72000027
2022-10-07T02:51:10.407Z,10.75
2022-10-07T02:52:11.036Z,10.77000046
2022-10-07T02:53:08.659Z,10.75
2022-10-07T02:54:07.185Z,10.76000023
2022-10-07T02:55:04.307Z,10.72999954
2022-10-07T02:55:59.750Z,10.75
2022-10-07T02:57:58.713Z,10.78999996
2022-10-07T02:59:02.414Z,10.78999996
2022-10-07T03:00:46.497Z,10.85000038
2022-10-07T03:02:24.961Z,11
2022-10-07T03:03:24.269Z,10.97999954
2022-10-07T03:04:24.591Z,10.94999981
2022-10-07T03:05:23.942Z,10.92000008
2022-10-07T03:07:45.313Z,10.92000008
2022-10-07T03:08:39.690Z,10.94999981
2022-10-07T03:09:41.362Z,10.97999954
2022-10-07T03:10:39.465Z,10.97000027
2022-10-07T03:12:34.199Z,10.96000004
2022-10-07T03:13:37.470Z,10.92000008
2022-10-07T03:14:33.801Z,10.85999966
2022-10-07T03:15:36.392Z,10.85000038
2022-10-07T03:15:42.358Z,10.85000038
2022-10-07T03:17:26.029Z,10.88000011
2022-10-07T03:18:25.719Z,10.86999989
2022-10-07T03:19:22.205Z,10.84000015
2022-10-07T03:20:24.022Z,10.81999969
2022-10-07T03:22:18.694Z,10.86999989
2022-10-07T03:23:14.680Z,10.85999966
2022-10-07T03:24:16.493Z,10.82999992
2022-10-07T03:25:08.979Z,10.77000046
2022-10-07T03:26:11.389Z,10.80000019
2022-10-07T03:27:10.452Z,10.78999996
2022-10-07T03:28:15.364Z,10.80000019
2022-10-07T03:29:07.325Z,10.80000019
2022-10-07T03:30:07.609Z,10.78999996
2022-10-07T03:31:04.239Z,10.77999973
2022-10-07T03:33:03.505Z,10.76000023
2022-10-07T03:34:04.946Z,10.76000023
2022-10-07T03:35:03.538Z,10.77000046
2022-10-07T03:36:00.004Z,10.76000023
2022-10-07T03:38:05.649Z,10.71000004
2022-10-07T03:39:07.644Z,10.71000004
2022-10-07T03:40:03.887Z,10.68999958
2022-10-07T03:42:09.498Z,10.65999985
2022-10-07T03:43:06.523Z,10.64000034
2022-10-07T03:44:07.356Z,10.60999966
2022-10-07T03:45:06.296Z,10.56000042
2022-10-07T03:46:07.819Z,10.56999969
2022-10-07T03:48:06.498Z,10.53999996
2022-10-07T03:49:01.178Z,10.51000023
2022-10-07T03:50:02.915Z,10.5
2022-10-07T03:51:01.158Z,10.52999973
2022-10-07T03:52:55.447Z,10.51000023
2022-10-07T03:53:57.175Z,10.47999954
2022-10-07T03:54:53.587Z,10.47999954
2022-10-07T03:55:52.910Z,10.47000027
2022-10-07T03:56:50.934Z,10.47999954
2022-10-07T03:57:59.621Z,10.43999958
2022-10-07T03:58:50.802Z,10.39999962
2022-10-07T03:59:51.707Z,10.39000034
2022-10-07T04:00:47.149Z,10.38000011
2022-10-07T04:01:48.032Z,10.39999962
2022-10-07T04:02:47.658Z,10.35000038
2022-10-07T04:03:49.860Z,10.35000038
2022-10-07T04:05:17.822Z,10.34000015
2022-10-07T04:06:04.848Z,10.40999985
2022-10-07T04:08:09.077Z,10.35999966
2022-10-07T04:09:04.431Z,10.34000015
2022-10-07T04:10:06.189Z,10.31999969
2022-10-07T04:11:07.311Z,10.32999992
2022-10-07T04:12:06.558Z,10.30000019
2022-10-07T04:13:01.650Z,10.27000046
2022-10-07T04:14:01.533Z,10.22000027
2022-10-07T04:15:00.846Z,10.22000027
2022-10-07T04:16:03.936Z,10.21000004
2022-10-07T04:17:58.369Z,10.21000004
2022-10-07T04:18:53.972Z,10.18999958
2022-10-07T04:19:57.942Z,10.19999981
2022-10-07T04:20:54.321Z,10.19999981
2022-10-07T04:22:49.099Z,10.18999958
2022-10-07T04:23:50.284Z,10.18000031
2022-10-07T04:24:45.837Z,10.17000008
2022-10-07T04:25:43.326Z,10.14000034
2022-10-07T04:27:52.070Z,10.11999989
2022-10-07T04:28:53.467Z,10.10999966
2022-10-07T04:29:51.029Z,10.09000015
2022-10-07T04:30:50.607Z,10.10000038
2022-10-07T04:32:46.148Z,10.07999992
2022-10-07T04:33:49.268Z,10.10000038
2022-10-07T04:34:44.338Z,10.07999992
2022-10-07T04:35:45.918Z,10.06999969
2022-10-07T04:36:41.466Z,10.11999989
2022-10-07T04:37:41.875Z,10.10999966
2022-10-07T04:38:36.642Z,10.07999992
2022-10-07T04:39:56.429Z,10.06999969
2022-10-07T04:39:59.715Z,10.06999969
2022-10-07T04:40:00.318Z,10.06999969
2022-10-07T04:42:31.429Z,10.27000046
2022-10-07T04:43:28.571Z,10.27000046
2022-10-07T04:44:39.642Z,10.23999977
2022-10-07T04:45:34.786Z,10.22999954
2022-10-07T04:47:25.468Z,10.27999973
2022-10-07T04:48:08.587Z,10.28999996
2022-10-07T04:49:09.864Z,10.32999992
2022-10-07T04:50:06.425Z,10.31000042
2022-10-07T04:51:05.174Z,10.30000019
2022-10-07T04:52:07.264Z,10.28999996
2022-10-07T04:53:04.821Z,10.25
2022-10-07T04:54:08.707Z,10.21000004
2022-10-07T04:55:07.791Z,10.18000031
2022-10-07T04:57:08.272Z,10.26000023
2022-10-07T04:58:09.098Z,10.23999977
2022-10-07T04:59:09.240Z,10.22999954
2022-10-07T05:00:12.067Z,10.22000027
2022-10-07T05:01:16.340Z,10.25
2022-10-07T05:02:16.106Z,10.18999958
2022-10-07T05:03:17.338Z,10.18999958
2022-10-07T05:04:14.385Z,10.18999958
2022-10-07T05:05:17.410Z,10.21000004
2022-10-07T05:06:13.812Z,10.21000004
2022-10-07T05:07:18.929Z,10.21000004
2022-10-07T05:08:13.141Z,10.19999981
2022-10-07T05:09:15.849Z,10.19999981
2022-10-07T05:10:12.478Z,10.18999958
2022-10-07T05:11:14.890Z,10.18999958
2022-10-07T05:12:18.323Z,10.18999958
2022-10-07T05:13:16.418Z,10.23999977
2022-10-07T05:14:20.262Z,10.23999977
2022-10-07T05:15:19.086Z,10.23999977
2022-10-07T05:17:18.761Z,10.30000019
2022-10-07T05:18:22.685Z,10.28999996
2022-10-07T05:19:23.055Z,10.23999977
2022-10-07T05:20:26.529Z,10.18999958
2022-10-07T05:22:39.042Z,10.18999958
2022-10-07T05:23:45.025Z,10.19999981
2022-10-07T05:24:43.271Z,10.19999981
2022-10-07T05:26:27.627Z,10.27999973
2022-10-07T05:27:19.296Z,10.35999966
2022-10-07T05:28:17.338Z,10.36999989
2022-10-07T05:29:17.152Z,10.35999966
2022-10-07T05:30:12.012Z,10.32999992
2022-10-07T05:32:15.301Z,10.23999977
2022-10-07T05:33:15.697Z,10.26000023
2022-10-07T05:34:11.970Z,10.27000046
2022-10-07T05:35:13.114Z,10.26000023
2022-10-07T05:36:07.901Z,10.27999973
2022-10-07T05:37:11.326Z,10.22999954
2022-10-07T05:38:03.355Z,10.21000004
2022-10-07T05:39:02.850Z,10.21000004
2022-10-07T05:39:57.417Z,10.18999958
2022-10-07T05:40:57.490Z,10.17000008
2022-10-07T05:41:51.927Z,10.15999985
2022-10-07T05:42:56.011Z,10.13000011
2022-10-07T05:43:49.509Z,10.11999989
2022-10-07T05:44:49.226Z,10.10999966
2022-10-07T05:45:44.884Z,10.10000038
2022-10-07T05:47:47.071Z,10.10000038
2022-10-07T05:48:44.209Z,10.06999969
2022-10-07T05:49:38.567Z,10.06999969
2022-10-07T05:50:41.143Z,10.05000019
2022-10-07T05:51:35.858Z,10.07999992
2022-10-07T05:52:39.646Z,10.02999973
2022-10-07T05:53:32.866Z,10.02000046
2022-10-07T05:54:30.399Z,10.01000023
2022-10-07T05:55:34.682Z,9.989999771
2022-10-07T05:56:32.419Z,10.02999973
2022-10-07T05:57:24.314Z,10.01000023
2022-10-07T05:58:25.203Z,9.989999771
2022-10-07T05:59:30.534Z,10
2022-10-07T06:00:29.863Z,9.970000267
2022-10-07T06:02:29.514Z,9.989999771
2022-10-07T06:03:25.616Z,9.979999542
2022-10-07T06:04:29.330Z,9.970000267
2022-10-07T06:08:54.804Z,9.960000038
2022-10-07T06:09:02.298Z,10.27999973
2022-10-07T06:10:03.205Z,10.35000038
2022-10-07T06:10:58.433Z,10.34000015
2022-10-07T06:11:59.589Z,10.35000038
2022-10-07T06:12:54.900Z,10.31000042
2022-10-07T06:13:54.580Z,10.27000046
2022-10-07T06:14:50.102Z,10.22000027
2022-10-07T06:15:52.642Z,10.17000008
2022-10-07T06:17:47.263Z,10.17000008
2022-10-07T06:18:42.860Z,10.13000011
2022-10-07T06:19:43.930Z,10.11999989
2022-10-07T06:20:39.222Z,10.10000038
2022-10-07T06:22:35.513Z,10.13000011
2022-10-07T06:23:40.539Z,10.13000011
2022-10-07T06:24:36.365Z,10.14000034
2022-10-07T06:25:39.144Z,10.14000034
2022-10-07T06:27:45.048Z,10.13000011
2022-10-07T06:28:38.600Z,10.15999985
2022-10-07T06:29:38.579Z,10.18999958
2022-10-07T06:30:34.075Z,10.17000008
2022-10-07T06:32:29.140Z,10.21000004
2022-10-07T06:33:28.911Z,10.25
2022-10-07T06:34:25.585Z,10.27999973
2022-10-07T06:35:24.452Z,10.31000042
2022-10-07T06:37:21.102Z,10.35999966
2022-10-07T06:38:20.357Z,10.38000011
2022-10-07T06:39:18.445Z,10.35999966
2022-10-07T06:40:21.495Z,10.36999989
2022-10-07T06:41:16.717Z,10.36999989
2022-10-07T06:42:21.992Z,10.35999966
2022-10-07T06:43:14.830Z,10.35000038
2022-10-07T06:44:17.400Z,10.38000011
2022-10-07T06:45:10.362Z,10.39999962
2022-10-07T06:47:52.896Z,10.48999977
2022-10-07T06:48:13.265Z,10.52000046
2022-10-07T06:49:12.307Z,10.67000008
2022-10-07T06:50:09.918Z,10.71000004
2022-10-07T06:51:07.966Z,10.72000027
2022-10-07T06:52:07.773Z,10.71000004
2022-10-07T06:53:02.971Z,10.69999981
2022-10-07T06:54:04.309Z,10.69999981
2022-10-07T06:54:59.624Z,10.64999962
2022-10-07T06:55:59.730Z,10.64999962
2022-10-07T06:57:59.114Z,10.72999954
2022-10-07T06:58:52.728Z,10.78999996
2022-10-07T06:59:52.067Z,10.81999969
2022-10-07T07:00:48.507Z,10.81999969
2022-10-07T07:01:48.575Z,10.81999969
2022-10-07T07:02:44.282Z,10.82999992
2022-10-07T07:03:44.988Z,10.81000042
2022-10-07T07:04:41.683Z,10.80000019
2022-10-07T07:05:44.609Z,10.80000019
2022-10-07T07:07:38.472Z,10.85000038
2022-10-07T07:08:35.006Z,10.85999966
2022-10-07T07:09:35.504Z,10.86999989
2022-10-07T07:10:31.209Z,10.89999962
2022-10-07T07:12:30.973Z,10.93999958
2022-10-07T07:13:26.321Z,10.97000027
2022-10-07T07:14:29.518Z,10.97999954
2022-10-07T07:15:22.554Z,11.02000046
2022-10-07T07:25:47.726Z,13.28999996
2022-10-07T07:27:46.964Z,13.01000023
2022-10-07T07:28:48.472Z,12.85999966
2022-10-07T07:29:44.949Z,12.71000004
2022-10-07T07:30:46.080Z,12.56000042
2022-10-07T07:31:43.517Z,12.40999985
2022-10-07T07:32:46.755Z,12.32999992
2022-10-07T07:33:41.500Z,12.27000046
2022-10-07T07:34:45.015Z,12.18999958
2022-10-07T07:38:40.714Z,12.31000042
2022-10-07T07:39:20.502Z,12.39999962
2022-10-07T07:40:19.658Z,12.39999962
2022-10-07T07:42:03.206Z,12.34000015
2022-10-07T07:42:42.757Z,12.31000042
2022-10-07T07:43:40.666Z,12.31000042
2022-10-07T07:44:37.476Z,12.28999996
2022-10-07T07:45:37.269Z,12.23999977
2022-10-07T07:47:22.540Z,12.18999958
2022-10-07T07:48:02.628Z,12.19999981
2022-10-07T07:49:01.755Z,12.19999981
2022-10-07T07:50:01.489Z,12.18999958
2022-10-07T07:52:07.654Z,12.18999958
2022-10-07T07:53:03.533Z,12.27999973
2022-10-07T07:54:03.692Z,12.28999996
2022-10-07T07:54:58.933Z,12.27000046
2022-10-07T08:17:53.114Z,15.10999966
2022-10-07T09:47:31.751Z,18.19000053
2022-10-07T09:48:08.566Z,18.12000084
2022-10-07T09:49:06.586Z,17.97999954
2022-10-07T09:50:05.812Z,17.82999992
2022-10-07T09:51:00.422Z,17.62999916
2022-10-07T09:52:55.023Z,17.36000061
2022-10-07T09:53:53.783Z,17.29000092
2022-10-07T09:54:48.311Z,17.20999908
2022-10-07T09:55:47.992Z,17.11000061
2022-10-07T09:57:43.200Z,17.05999947
2022-10-07T09:58:37.933Z,17.05999947
2022-10-07T09:59:38.044Z,17.06999969
2022-10-07T10:00:33.331Z,17.07999992
2022-10-07T10:01:35.785Z,17.04000092
2022-10-07T10:02:28.513Z,17.03000069
2022-10-07T10:03:28.326Z,17.07999992
2022-10-07T10:04:23.150Z,17.09000015
2022-10-07T10:05:23.183Z,17.09000015
2022-10-07T10:07:18.116Z,17.07999992
2022-10-07T10:08:13.313Z,17.04000092
2022-10-07T10:09:16.871Z,17.03000069
2022-10-07T10:09:20.203Z,17.03000069
2022-10-07T10:10:08.566Z,17.07999992
2022-10-07T10:11:08.513Z,17.05999947
2022-10-07T10:13:06.251Z,17.10000038
2022-10-07T10:13:59.138Z,17.11000061
2022-10-07T10:14:59.410Z,17.12999916
2022-10-07T10:15:54.726Z,17.12999916
2022-10-07T10:17:50.113Z,17.19000053
2022-10-07T10:18:53.030Z,17.21999931
2022-10-07T10:19:45.943Z,17.23999977
2022-10-07T10:20:46.417Z,17.29000092
2022-10-07T10:21:41.830Z,17.28000069
2022-10-07T10:22:42.595Z,17.32999992
2022-10-07T10:23:37.991Z,17.39999962
2022-10-07T10:24:40.904Z,17.40999985
2022-10-07T10:25:33.796Z,17.40999985
2022-10-07T10:26:36.641Z,17.38999939
2022-10-07T10:27:29.414Z,17.37999916
2022-10-07T10:28:27.353Z,17.43000031
2022-10-07T10:29:25.285Z,17.45999908
2022-10-07T10:30:27.727Z,17.48999977
2022-10-07T10:32:21.339Z,17.53000069
2022-10-07T10:34:06.669Z,17.54999924
2022-10-07T10:34:26.931Z,17.53000069
2022-10-07T10:35:25.885Z,17.62000084
2022-10-07T10:36:27.112Z,17.57999992
2022-10-07T10:37:23.345Z,17.59000015
2022-10-07T10:38:23.978Z,17.57999992
2022-10-07T10:39:20.241Z,17.54000092
2022-10-07T10:40:20.196Z,17.48999977
2022-10-07T10:41:15.867Z,17.40999985
2022-10-07T10:42:16.696Z,17.39999962
2022-10-07T10:43:12.251Z,17.38999939
2022-10-07T10:44:12.606Z,17.36000061
2022-10-07T10:45:08.470Z,17.30999947
2022-10-07T10:46:08.631Z,17.23999977
2022-10-07T10:48:01.535Z,17.15999985
2022-10-07T10:48:59.253Z,17.15999985
2022-10-07T10:49:56.857Z,17.11000061
2022-10-07T10:50:54.321Z,17.05999947
2022-10-07T10:52:49.846Z,17.03000069
2022-10-07T10:53:46.629Z,17
2022-10-07T10:54:44.075Z,17.01000023
2022-10-07T10:55:41.557Z,17.03000069
2022-10-07T10:56:38.839Z,17
2022-10-07T10:57:36.480Z,16.95999908
2022-10-07T10:58:34.270Z,16.95999908
2022-10-07T10:59:31.680Z,16.96999931
2022-10-07T11:00:29.201Z,16.95999908
2022-10-07T11:01:26.610Z,16.95000076
2022-10-07T11:02:24.201Z,16.94000053
2022-10-07T11:03:23.208Z,16.93000031
2022-10-07T11:04:18.173Z,16.94000053
2022-10-07T11:05:20.719Z,16.89999962
2022-10-07T11:06:14.878Z,16.89999962
2022-10-07T11:07:13.022Z,16.90999985
2022-10-07T11:08:07.855Z,16.93000031
2022-10-07T11:09:52.345Z,16.95000076
2022-10-07T11:10:12.927Z,16.95999908
2022-10-07T11:11:12.447Z,17
2022-10-07T11:12:13.806Z,17.07999992
2022-10-07T11:13:10.253Z,17.09000015
2022-10-07T11:14:11.159Z,17.10000038
2022-10-07T11:15:07.810Z,17.05999947
2022-10-07T11:16:08.561Z,17.01000023
2022-10-07T11:17:04.327Z,16.98999977
2022-10-07T11:18:04.944Z,16.95999908
2022-10-07T11:19:00.957Z,16.95000076
2022-10-07T11:20:04.537Z,16.95000076
2022-10-07T11:20:57.905Z,16.93000031
2022-10-07T11:21:58.487Z,16.93000031
2022-10-07T11:22:54.242Z,16.93000031
2022-10-07T11:23:54.997Z,16.92000008
2022-10-07T11:24:53.299Z,16.89999962
2022-10-07T11:27:14.439Z,17.03000069
2022-10-07T11:28:17.799Z,17.11000061
2022-10-07T11:29:11.240Z,17.12000084
2022-10-07T11:30:12.116Z,17.13999939
2022-10-07T11:31:07.920Z,17.11000061
2022-10-07T11:33:05.073Z,17.10000038
2022-10-07T11:34:07.979Z,17.09000015
2022-10-07T11:35:02.203Z,17.09000015
2022-10-07T11:35:59.806Z,17.07999992
2022-10-07T11:37:56.486Z,17.02000046
2022-10-07T11:38:57.452Z,16.95999908
2022-10-07T11:39:53.918Z,16.95999908
2022-10-07T11:40:52.492Z,16.95999908
2022-10-07T11:41:49.835Z,16.95000076
2022-10-07T11:42:48.716Z,16.94000053
2022-10-07T11:44:26.202Z,16.95999908
2022-10-07T11:45:06.370Z,16.96999931
2022-10-07T11:46:10.623Z,16.97999954
2022-10-07T11:47:05.179Z,16.98999977
2022-10-07T11:48:00.458Z,17.01000023
2022-10-07T11:49:00.482Z,16.98999977
2022-10-07T11:49:55.634Z,17
2022-10-07T11:50:58.183Z,16.96999931
2022-10-07T11:51:53.832Z,16.95000076
2022-10-07T11:52:55.955Z,16.95000076
2022-10-07T11:53:49.434Z,16.95000076
2022-10-07T11:54:46.284Z,16.97999954
2022-10-07T11:55:43.821Z,16.98999977
2022-10-07T11:56:41.986Z,16.97999954
2022-10-07T11:57:39.451Z,16.98999977
2022-10-07T11:58:36.987Z,16.96999931
2022-10-07T11:59:35.076Z,16.97999954
2022-10-07T12:00:37.595Z,16.97999954
2022-10-07T12:02:28.677Z,16.98999977
2022-10-07T12:03:26.358Z,16.97999954
2022-10-07T12:04:23.656Z,16.98999977
2022-10-07T12:05:21.256Z,16.97999954
2022-10-07T12:06:18.716Z,16.96999931
2022-10-07T12:07:16.238Z,16.96999931
2022-10-07T12:08:13.596Z,16.96999931
2022-10-07T12:09:11.003Z,16.95999908
2022-10-07T12:10:50.548Z,17.09000015
2022-10-07T12:13:11.430Z,17.56999969
2022-10-07T12:13:47.988Z,17.65999985
2022-10-07T12:14:45.942Z,17.70000076
2022-10-07T12:15:44.797Z,17.65999985
2022-10-07T12:16:39.210Z,17.59000015
2022-10-07T12:17:38.193Z,17.5
2022-10-07T12:18:33.425Z,17.43000031
2022-10-07T12:19:31.413Z,17.39999962
2022-10-07T12:20:25.861Z,17.36000061
2022-10-07T12:21:24.659Z,17.29999924
2022-10-07T12:22:18.801Z,17.18000031
2022-10-07T12:23:20.093Z,17.19000053
2022-10-07T12:24:11.969Z,17.19000053
2022-10-07T12:25:11.293Z,17.17000008
2022-10-07T12:26:04.447Z,17.14999962
2022-10-07T12:28:00.498Z,17.14999962
2022-10-07T12:28:54.822Z,17.12999916
2022-10-07T12:29:51.303Z,17.13999939
2022-10-07T12:30:50.501Z,17.14999962
2022-10-07T12:31:44.650Z,17.11000061
2022-10-07T12:32:43.544Z,17.10000038
2022-10-07T12:33:37.059Z,17.11000061
2022-10-07T12:34:33.457Z,17.10000038
2022-10-07T12:35:32.101Z,17.03000069
2022-10-07T12:36:26.384Z,17.02000046
2022-10-07T12:37:24.899Z,16.98999977
2022-10-07T12:38:19.080Z,16.96999931
2022-10-07T12:39:20.374Z,16.95999908
2022-10-07T12:40:11.648Z,16.97999954
2022-10-07T12:41:07.963Z,16.95999908
2022-10-07T12:42:06.735Z,16.98999977
2022-10-07T12:43:00.426Z,17
2022-10-07T12:44:01.887Z,17.01000023
2022-10-07T12:44:54.093Z,17.01000023
2022-10-07T12:45:54.750Z,17.03000069
2022-10-07T12:48:25.297Z,17.21999931
2022-10-07T12:49:25.456Z,17.45000076
2022-10-07T12:50:20.525Z,17.69000053
2022-10-07T12:51:14.894Z,17.73999977
2022-10-07T12:52:14.308Z,17.70999908
2022-10-07T12:53:09.522Z,17.64999962
2022-10-07T12:54:34.051Z,17.57999992
2022-10-07T12:55:13.860Z,17.54999924
2022-10-07T12:56:11.548Z,17.48999977
2022-10-07T12:57:12.230Z,17.44000053
2022-10-07T12:58:07.494Z,17.40999985
2022-10-07T12:59:07.574Z,17.37999916
2022-10-07T13:00:03.821Z,17.36000061
2022-10-07T13:01:03.238Z,17.31999969
2022-10-07T13:01:58.865Z,17.25
2022-10-07T13:02:58.589Z,17.22999954
2022-10-07T13:03:53.976Z,17.21999931
2022-10-07T13:04:53.205Z,17.20999908
2022-10-07T13:05:50.469Z,17.19000053
2022-10-07T13:07:46.021Z,17.15999985
2022-10-07T13:08:48.733Z,17.13999939
2022-10-07T13:09:43.092Z,17.13999939
2022-10-07T13:10:46.352Z,17.13999939
2022-10-07T13:11:39.212Z,17.13999939
2022-10-07T13:12:39.331Z,17.13999939
2022-10-07T13:13:34.835Z,17.15999985
2022-10-07T13:14:34.466Z,17.14999962
2022-10-07T13:15:29.678Z,17.13999939
2022-10-07T13:17:25.696Z,17.12999916
2022-10-07T13:18:25.239Z,17.12999916
2022-10-07T13:19:25.726Z,17.13999939
2022-10-07T13:20:18.527Z,17.12999916
2022-10-07T13:21:15.895Z,17.12000084
2022-10-07T13:22:39.210Z,17.11000061
2022-10-07T13:23:24.594Z,17.11000061
2022-10-07T13:23:27.218Z,17.11000061
2022-10-07T13:24:20.676Z,17.14999962
2022-10-07T13:25:16.376Z,17.19000053
2022-10-07T13:26:17.119Z,17.19000053
2022-10-07T13:27:13.479Z,17.20000076
2022-10-07T13:28:14.989Z,17.19000053
2022-10-07T13:29:10.644Z,17.19000053
2022-10-07T13:30:11.544Z,17.18000031
2022-10-07T13:31:07.732Z,17.15999985
2022-10-07T13:32:13.392Z,17.14999962
2022-10-07T13:33:06.734Z,17.13999939
2022-10-07T13:34:11.634Z,17.12999916
2022-10-07T13:35:06.117Z,17.12999916
2022-10-07T13:36:03.463Z,17.11000061
2022-10-07T13:37:03.848Z,17.10000038
2022-10-07T13:37:59.830Z,17.11000061
2022-10-07T13:39:02.950Z,17.11000061
2022-10-07T13:39:57.310Z,17.12000084
2022-10-07T13:40:56.786Z,17.12000084
2022-10-07T13:41:53.056Z,17.12000084
2022-10-07T13:42:56.132Z,17.12999916
2022-10-07T13:43:50.308Z,17.12999916
2022-10-07T13:44:52.626Z,17.12000084
2022-10-07T13:45:46.430Z,17.09000015
2022-10-07T13:46:49.371Z,17.11000061
2022-10-07T13:47:43.044Z,17.10000038
2022-10-07T13:48:46.695Z,17.12000084
2022-10-07T13:49:42.870Z,17.12999916
2022-10-07T13:50:45.046Z,17.12000084